Terminal Aerodrome Forecast
Issued by NWS Pocatello, ID

Home | Current Version | Previous Version | Text Only | Print | Product List | Glossary On
Versions: 1 2 3 4 5 6 7 8 9 10 11 12 13 14 15 16 17 18
518
FTUS45 KPIH 052321
TAFBYI
TAF
KBYI 052321Z 0600/0624 05006KT P6SM SCT040 BKN150
     FM061000 22011KT P6SM SCT070
     FM061800 23012G25KT P6SM OVC120=

USA.gov is the U.S. government's official web portal to all federal, state and local government web resources and services.